createdAt,value
2023-04-12T00:00:20.893Z,6.89
2023-04-12T00:02:49.834Z,6.97
2023-04-12T00:05:16.531Z,7.08
2023-04-12T00:07:46.759Z,7.17
2023-04-12T00:10:13.353Z,7.24
2023-04-12T00:12:40.973Z,7.31
2023-04-12T00:15:08.697Z,7.38
2023-04-12T00:17:35.346Z,7.44
2023-04-12T00:20:05.565Z,7.47
2023-04-12T00:22:32.086Z,7.49
2023-04-12T00:24:58.623Z,7.52
2023-04-12T00:27:25.842Z,7.55
2023-04-12T00:29:52.374Z,7.54
2023-04-12T00:32:18.998Z,7.52
2023-04-12T00:34:46.239Z,7.52
2023-04-12T00:37:12.775Z,7.52
2023-04-12T00:39:39.413Z,7.53
2023-04-12T00:42:06.495Z,7.55
2023-04-12T00:44:35.310Z,7.55
2023-04-12T00:47:04.899Z,7.55
2023-04-12T00:49:32.966Z,7.56
2023-04-12T00:52:04.513Z,7.57
2023-04-12T00:54:32.408Z,7.56
2023-04-12T00:57:00.574Z,7.54
2023-04-12T00:59:27.291Z,7.51
2023-04-12T01:01:57.811Z,7.47
2023-04-12T01:04:26.352Z,7.42
2023-04-12T01:07:10.107Z,7.36
2023-04-12T01:10:08.378Z,7.33
2023-04-12T01:12:37.965Z,7.25
2023-04-12T01:15:13.089Z,7.17
2023-04-12T01:17:49.059Z,7.10
2023-04-12T01:20:21.709Z,7.05
2023-04-12T01:23:14.726Z,7.02
2023-04-12T01:26:00.278Z,6.98
2023-04-12T01:28:38.229Z,6.98
2023-04-12T01:31:07.288Z,6.99
2023-04-12T01:33:36.999Z,6.99
2023-04-12T01:36:12.174Z,6.97
2023-04-12T01:38:41.737Z,6.97
2023-04-12T01:41:08.562Z,6.97
2023-04-12T01:43:41.353Z,6.96
2023-04-12T01:46:07.988Z,6.96
2023-04-12T01:48:35.033Z,6.95
2023-04-12T01:51:09.317Z,6.96
2023-04-12T01:53:35.898Z,6.98
2023-04-12T01:56:08.166Z,7.02
2023-04-12T01:58:36.179Z,7.06
2023-04-12T02:01:04.100Z,7.06
2023-04-12T02:03:31.676Z,7.07
2023-04-12T02:05:59.684Z,7.10
2023-04-12T02:08:27.010Z,7.13
2023-04-12T02:10:54.872Z,7.16
2023-04-12T02:13:21.582Z,7.19
2023-04-12T02:19:03.988Z,7.26
2023-04-12T02:21:42.938Z,7.29
2023-04-12T02:24:11.319Z,7.33
2023-04-12T02:26:38.903Z,7.36
2023-04-12T02:29:09.098Z,7.39
2023-04-12T02:31:38.892Z,7.42
2023-04-12T02:34:07.377Z,7.43
2023-04-12T02:36:37.785Z,7.46
2023-04-12T02:39:05.200Z,7.49
2023-04-12T02:41:33.897Z,7.50
2023-04-12T02:44:00.518Z,7.50
2023-04-12T02:46:27.510Z,7.53
2023-04-12T02:48:58.326Z,7.55
2023-04-12T02:51:32.232Z,7.55
2023-04-12T02:53:59.286Z,7.56
2023-04-12T02:56:29.975Z,7.56
2023-04-12T02:59:01.747Z,7.55
2023-04-12T03:01:46.517Z,7.56
2023-04-12T03:04:22.769Z,7.61
2023-04-12T03:06:53.881Z,7.66
2023-04-12T03:09:27.120Z,7.68
2023-04-12T03:11:54.777Z,7.70
2023-04-12T03:14:21.726Z,7.71
2023-04-12T03:16:49.227Z,7.73
2023-04-12T03:19:17.474Z,7.75
2023-04-12T03:21:49.341Z,7.74
2023-04-12T03:24:16.131Z,7.73
2023-04-12T03:26:43.924Z,7.72
2023-04-12T03:29:16.275Z,7.70
2023-04-12T03:31:43.377Z,7.70
2023-04-12T03:34:10.477Z,7.71
2023-04-12T03:36:39.854Z,7.72
2023-04-12T03:39:17.139Z,7.73
2023-04-12T03:41:44.697Z,7.76
2023-04-12T03:44:11.445Z,7.78
2023-04-12T03:46:38.562Z,7.80
2023-04-12T03:49:07.742Z,7.82
2023-04-12T03:51:35.099Z,7.86
2023-04-12T03:54:04.437Z,7.91
2023-04-12T03:56:39.618Z,7.97
2023-04-12T03:59:10.302Z,8.02
2023-04-12T04:01:37.439Z,8.06
2023-04-12T04:04:05.333Z,8.09
2023-04-12T04:06:32.096Z,8.10
2023-04-12T04:08:59.821Z,8.10
2023-04-12T04:11:27.777Z,8.10
2023-04-12T04:14:04.023Z,8.14
2023-04-12T04:16:31.253Z,8.17
2023-04-12T04:18:58.295Z,8.18
2023-04-12T04:21:24.998Z,8.20
2023-04-12T04:23:55.570Z,8.23
2023-04-12T04:26:33.578Z,8.27
2023-04-12T04:29:11.903Z,8.34
2023-04-12T04:31:39.394Z,8.40
2023-04-12T04:34:07.195Z,8.46
2023-04-12T04:36:37.857Z,8.50
2023-04-12T04:39:05.549Z,8.53
2023-04-12T04:41:39.795Z,8.57
2023-04-12T04:44:13.391Z,8.62
2023-04-12T04:46:48.761Z,8.64
2023-04-12T04:49:15.463Z,8.66
2023-04-12T04:51:42.208Z,8.69
2023-04-12T04:54:09.457Z,8.74
2023-04-12T04:56:38.625Z,8.78
2023-04-12T04:59:05.608Z,8.82
2023-04-12T05:01:36.529Z,8.86
2023-04-12T05:04:04.193Z,8.86
2023-04-12T05:06:31.794Z,8.85
2023-04-12T05:09:00.577Z,8.88
2023-04-12T05:11:27.599Z,8.92
2023-04-12T05:13:54.275Z,8.93
2023-04-12T05:16:21.016Z,8.95
2023-04-12T05:26:12.213Z,9.24
2023-04-12T05:28:39.857Z,9.29
2023-04-12T05:31:08.574Z,9.34
2023-04-12T05:33:37.496Z,9.41
2023-04-12T05:36:04.867Z,9.46
2023-04-12T05:38:31.801Z,9.51
2023-04-12T05:41:04.714Z,9.55
2023-04-12T05:43:33.037Z,9.59
2023-04-12T05:45:59.758Z,9.63
2023-04-12T05:48:26.526Z,9.64
2023-04-12T05:50:55.270Z,9.65
2023-04-12T05:53:22.548Z,9.64
2023-04-12T05:55:49.877Z,9.65
2023-04-12T05:58:17.134Z,9.72
2023-04-12T06:00:44.055Z,9.77
2023-04-12T06:03:11.814Z,9.85
2023-04-12T06:05:39.500Z,9.90
2023-04-12T06:08:06.491Z,9.95
2023-04-12T06:10:33.514Z,9.99
2023-04-12T06:13:00.503Z,10.05
2023-04-12T06:15:27.418Z,10.09
2023-04-12T06:17:54.846Z,10.14
2023-04-12T06:20:21.615Z,10.20
2023-04-12T06:22:48.412Z,10.25
2023-04-12T06:25:17.360Z,10.32
2023-04-12T06:27:46.070Z,10.36
2023-04-12T06:30:14.973Z,10.41
2023-04-12T06:32:42.370Z,10.45
2023-04-12T06:35:09.124Z,10.46
2023-04-12T06:37:36.104Z,10.45
2023-04-12T06:40:03.240Z,10.47
2023-04-12T06:42:29.849Z,10.49
2023-04-12T06:44:56.364Z,10.53
2023-04-12T06:47:25.310Z,10.61
2023-04-12T06:49:54.870Z,10.74
2023-04-12T06:52:25.520Z,10.86
2023-04-12T06:54:52.680Z,11.06
2023-04-12T06:57:19.256Z,11.26
2023-04-12T06:59:45.857Z,11.44
2023-04-12T07:02:12.424Z,11.89
2023-04-12T07:04:39.025Z,12.26
2023-04-12T07:07:06.465Z,12.37
2023-04-12T07:09:33.513Z,12.37
2023-04-12T07:12:01.024Z,12.37
2023-04-12T07:14:27.774Z,12.36
2023-04-12T07:16:54.697Z,12.29
2023-04-12T07:19:21.408Z,12.39
2023-04-12T07:21:48.022Z,12.45
2023-04-12T07:24:14.619Z,12.48
2023-04-12T07:26:41.242Z,12.68
2023-04-12T07:29:07.806Z,12.85
2023-04-12T07:31:34.757Z,13.11
2023-04-12T07:34:01.448Z,13.49
2023-04-12T07:36:28.212Z,13.73
2023-04-12T07:38:57.920Z,13.82
2023-04-12T07:41:24.837Z,13.81
2023-04-12T07:43:51.610Z,13.85
2023-04-12T07:46:18.406Z,13.99
2023-04-12T07:48:45.333Z,14.18
2023-04-12T07:51:12.658Z,14.51
2023-04-12T07:53:41.987Z,14.79
2023-04-12T07:56:08.911Z,15.02
2023-04-12T07:58:35.544Z,15.03
2023-04-12T08:01:02.206Z,14.82
2023-04-12T08:03:29.336Z,14.72
2023-04-12T08:05:56.058Z,14.61
2023-04-12T08:08:23.127Z,14.33
2023-04-12T08:10:51.582Z,13.94
2023-04-12T08:13:18.979Z,13.68
2023-04-12T08:15:47.768Z,13.59
2023-04-12T08:18:15.256Z,13.48
2023-04-12T08:20:44.140Z,13.47
2023-04-12T08:23:12.167Z,13.51
2023-04-12T08:25:39.672Z,13.46
2023-04-12T08:28:09.538Z,13.34
2023-04-12T08:30:36.847Z,13.21
2023-04-12T08:33:03.689Z,13.12
2023-04-12T08:35:30.538Z,13.13
2023-04-12T08:37:57.227Z,13.20
2023-04-12T08:40:24.579Z,13.30
2023-04-12T08:42:52.911Z,13.31
2023-04-12T08:45:23.752Z,13.41
2023-04-12T08:47:50.624Z,13.58
2023-04-12T08:50:18.592Z,13.81
2023-04-12T08:52:47.896Z,13.95
2023-04-12T08:55:14.734Z,14.11
2023-04-12T08:57:42.435Z,14.31
2023-04-12T09:00:10.350Z,14.49
2023-04-12T09:02:38.663Z,14.57
2023-04-12T09:05:07.112Z,14.93
2023-04-12T09:07:34.275Z,15.78
2023-04-12T09:10:01.453Z,16.86
2023-04-12T09:12:28.485Z,17.98
2023-04-12T09:15:13.679Z,19.69
2023-04-12T09:17:42.110Z,21.05
2023-04-12T09:20:29.408Z,22.10
2023-04-12T09:22:56.283Z,22.32
2023-04-12T09:25:38.596Z,22.31
2023-04-12T09:28:21.754Z,22.66
2023-04-12T09:30:51.701Z,23.22
2023-04-12T09:33:23.542Z,23.56
2023-04-12T09:35:50.340Z,23.52
2023-04-12T09:38:17.282Z,23.73
2023-04-12T09:40:45.558Z,23.40
2023-04-12T09:43:12.529Z,22.92
2023-04-12T09:45:39.419Z,23.08
2023-04-12T09:48:07.210Z,22.95
2023-04-12T09:50:34.539Z,22.86
2023-04-12T09:53:03.685Z,22.93
2023-04-12T09:55:32.513Z,23.10
2023-04-12T09:58:03.164Z,23.22
2023-04-12T10:00:34.333Z,23.53
2023-04-12T10:03:02.121Z,23.38
2023-04-12T10:05:29.553Z,23.19
2023-04-12T10:07:58.179Z,22.89
2023-04-12T10:10:28.834Z,22.63
2023-04-12T10:12:56.553Z,22.25
2023-04-12T10:15:25.720Z,21.95
2023-04-12T10:17:58.118Z,21.42
2023-04-12T10:20:28.964Z,20.82
2023-04-12T10:22:59.756Z,20.29
2023-04-12T10:25:31.118Z,19.72
2023-04-12T10:28:13.101Z,19.16
2023-04-12T10:30:40.007Z,18.92
2023-04-12T10:33:08.414Z,19.35
2023-04-12T10:35:57.782Z,20.56
2023-04-12T10:38:27.068Z,21.64
2023-04-12T10:41:24.357Z,22.23
2023-04-12T10:43:52.067Z,22.91
2023-04-12T10:46:39.559Z,23.51
2023-04-12T10:49:17.335Z,24.03
2023-04-12T10:52:01.197Z,23.76
2023-04-12T10:54:36.806Z,23.47
2023-04-12T10:57:05.446Z,23.56
2023-04-12T10:59:56.902Z,23.35
2023-04-12T11:02:24.259Z,22.71
2023-04-12T11:05:11.337Z,21.93
2023-04-12T11:08:00.959Z,21.13
2023-04-12T11:10:41.825Z,20.56
2023-04-12T11:13:18.168Z,19.99
2023-04-12T11:15:45.696Z,19.76
2023-04-12T11:18:12.712Z,20.30
2023-04-12T11:20:40.942Z,20.94
2023-04-12T11:23:10.595Z,21.39
2023-04-12T11:25:38.755Z,21.88
2023-04-12T11:28:14.091Z,21.79
2023-04-12T11:30:56.213Z,20.92
2023-04-12T11:33:37.032Z,20.25
2023-04-12T11:36:09.613Z,19.71
2023-04-12T11:38:38.152Z,19.31
2023-04-12T11:41:07.098Z,19.08
2023-04-12T11:43:35.776Z,19.21
2023-04-12T11:46:03.492Z,19.58
2023-04-12T11:48:30.861Z,20.09
2023-04-12T11:51:10.282Z,20.56
2023-04-12T11:53:39.068Z,21.05
2023-04-12T11:56:06.416Z,21.61
2023-04-12T11:58:33.685Z,22.13
2023-04-12T12:01:00.871Z,22.69
2023-04-12T12:03:28.943Z,23.45
2023-04-12T12:05:56.680Z,24.21
2023-04-12T12:08:24.519Z,24.43
2023-04-12T12:11:04.001Z,24.10
2023-04-12T12:13:53.201Z,23.95
2023-04-12T12:16:29.475Z,24.00
2023-04-12T12:18:57.890Z,24.49
2023-04-12T12:21:27.399Z,24.83
2023-04-12T12:23:57.103Z,24.80
2023-04-12T12:26:26.252Z,24.81
2023-04-12T12:28:55.687Z,25.02
2023-04-12T12:31:24.788Z,24.86
2023-04-12T12:33:57.233Z,24.26
2023-04-12T12:36:34.598Z,23.81
2023-04-12T12:39:07.502Z,23.76
2023-04-12T12:41:34.705Z,24.11
2023-04-12T12:44:01.611Z,24.50
2023-04-12T12:46:40.703Z,24.71
2023-04-12T12:49:15.681Z,24.50
2023-04-12T12:51:43.015Z,24.42
2023-04-12T12:54:10.089Z,24.24
2023-04-12T12:56:37.131Z,24.08
2023-04-12T12:59:03.987Z,24.22
2023-04-12T13:01:31.152Z,24.38
2023-04-12T13:03:59.340Z,24.66
2023-04-12T13:06:27.288Z,24.81
2023-04-12T13:08:55.394Z,24.45
2023-04-12T13:11:22.384Z,23.84
2023-04-12T13:13:49.293Z,23.11
2023-04-12T13:16:16.322Z,22.60
2023-04-12T13:18:43.894Z,21.92
2023-04-12T13:21:11.606Z,21.46
2023-04-12T13:23:38.491Z,21.13
2023-04-12T13:26:06.395Z,20.88
2023-04-12T13:28:33.658Z,20.72
2023-04-12T13:31:01.873Z,20.61
2023-04-12T13:33:28.766Z,20.52
2023-04-12T13:35:55.737Z,20.54
2023-04-12T13:38:22.570Z,20.49
2023-04-12T13:40:49.453Z,20.28
2023-04-12T13:43:16.810Z,20.17
2023-04-12T13:45:44.662Z,20.24
2023-04-12T13:48:11.551Z,20.41
2023-04-12T13:50:38.880Z,20.71
2023-04-12T13:53:05.927Z,20.94
2023-04-12T13:55:32.871Z,21.02
2023-04-12T13:57:59.819Z,21.00
2023-04-12T14:00:27.417Z,21.06
2023-04-12T14:02:54.576Z,21.20
2023-04-12T14:05:21.614Z,21.17
2023-04-12T14:07:50.091Z,21.12
2023-04-12T14:10:16.953Z,20.89
2023-04-12T14:12:43.715Z,20.66
2023-04-12T14:15:10.825Z,20.54
2023-04-12T14:17:37.904Z,20.54
2023-04-12T14:20:08.787Z,20.70
2023-04-12T14:22:35.478Z,20.99
2023-04-12T14:25:02.406Z,20.98
2023-04-12T14:27:29.369Z,20.76
2023-04-12T14:29:56.850Z,20.71
2023-04-12T14:32:24.009Z,20.44
2023-04-12T14:34:50.938Z,20.20
2023-04-12T14:37:17.915Z,20.22
2023-04-12T14:39:44.838Z,20.33
2023-04-12T14:42:12.092Z,20.30
2023-04-12T14:44:39.068Z,20.23
2023-04-12T14:47:06.197Z,20.19
2023-04-12T14:49:33.524Z,19.85
2023-04-12T14:52:01.681Z,19.54
2023-04-12T14:54:28.600Z,19.44
2023-04-12T14:56:56.222Z,19.49
2023-04-12T14:59:23.636Z,19.53
2023-04-12T15:01:52.824Z,19.55
2023-04-12T15:04:20.317Z,19.54
2023-04-12T15:06:47.281Z,19.38
2023-04-12T15:09:17.981Z,19.27
2023-04-12T15:11:49.282Z,19.11
2023-04-12T15:14:20.850Z,18.92
2023-04-12T15:16:49.361Z,18.61
2023-04-12T15:19:20.895Z,18.39
2023-04-12T15:21:51.556Z,18.21
2023-04-12T15:24:19.072Z,18.12
2023-04-12T15:26:49.597Z,18.05
2023-04-12T15:29:17.220Z,17.91
2023-04-12T15:31:44.468Z,17.77
2023-04-12T15:34:14.590Z,17.62
2023-04-12T15:36:43.374Z,17.44
2023-04-12T15:39:11.400Z,17.35
2023-04-12T15:41:39.981Z,17.25
2023-04-12T15:44:08.583Z,17.18
2023-04-12T15:46:36.436Z,17.10
2023-04-12T15:49:03.264Z,17.10
2023-04-12T15:51:30.343Z,17.10
2023-04-12T15:53:57.530Z,17.09
2023-04-12T15:56:25.429Z,17.02
2023-04-12T15:58:53.931Z,16.94
2023-04-12T16:01:20.935Z,16.93
2023-04-12T16:03:48.941Z,16.93
2023-04-12T16:06:20.293Z,16.87
2023-04-12T16:08:52.049Z,16.80
2023-04-12T16:11:21.193Z,16.73
2023-04-12T16:13:49.866Z,16.69
2023-04-12T16:16:18.596Z,16.61
2023-04-12T16:18:46.658Z,16.47
2023-04-12T16:21:16.752Z,16.30
2023-04-12T16:23:44.631Z,16.06
2023-04-12T16:26:14.347Z,15.86
2023-04-12T16:28:43.267Z,15.66
2023-04-12T16:31:10.584Z,15.51
2023-04-12T16:33:37.784Z,15.36
2023-04-12T16:36:05.298Z,15.21
2023-04-12T16:38:35.048Z,15.12
2023-04-12T16:41:02.613Z,15.03
2023-04-12T16:43:29.459Z,14.91
2023-04-12T16:45:56.948Z,14.82
2023-04-12T16:48:23.758Z,14.72
2023-04-12T16:50:50.634Z,14.58
2023-04-12T16:53:17.778Z,14.43
2023-04-12T16:55:48.099Z,14.29
2023-04-12T16:58:15.973Z,14.16
2023-04-12T17:00:43.321Z,14.06
2023-04-12T17:03:12.798Z,13.95
2023-04-12T17:05:42.584Z,13.83
2023-04-12T17:08:10.007Z,13.74
2023-04-12T17:10:37.439Z,13.65
2023-04-12T17:13:05.040Z,13.58
2023-04-12T17:15:32.005Z,13.56
2023-04-12T17:18:02.065Z,13.52
2023-04-12T17:20:29.493Z,13.47
2023-04-12T17:22:58.046Z,13.41
2023-04-12T17:25:27.338Z,13.38
2023-04-12T17:27:54.177Z,13.34
2023-04-12T17:30:21.202Z,13.27
2023-04-12T17:32:48.818Z,13.20
2023-04-12T17:35:17.443Z,13.16
2023-04-12T17:37:44.594Z,13.10
2023-04-12T17:40:12.757Z,13.08
2023-04-12T17:42:41.550Z,13.11
2023-04-12T17:45:12.542Z,13.07
2023-04-12T17:47:40.697Z,13.05
2023-04-12T17:50:09.579Z,13.02
2023-04-12T17:52:37.340Z,12.94
2023-04-12T17:55:05.508Z,12.86
2023-04-12T17:57:32.972Z,12.79
2023-04-12T17:59:59.813Z,12.76
2023-04-12T18:02:27.777Z,12.66
2023-04-12T18:04:55.414Z,12.57
2023-04-12T18:07:23.173Z,12.46
2023-04-12T18:09:51.394Z,12.39
2023-04-12T18:12:18.473Z,12.30
2023-04-12T18:14:45.542Z,12.29
2023-04-12T18:17:12.481Z,12.27
2023-04-12T18:19:39.324Z,12.22
2023-04-12T18:22:06.382Z,12.18
2023-04-12T18:24:33.262Z,12.10
2023-04-12T18:27:01.674Z,12.03
2023-04-12T18:29:28.436Z,11.97
2023-04-12T18:31:55.546Z,11.92
2023-04-12T18:34:22.940Z,11.85
2023-04-12T18:36:50.000Z,11.78
2023-04-12T18:39:16.857Z,11.73
2023-04-12T18:41:43.514Z,11.70
2023-04-12T18:44:11.945Z,11.69
2023-04-12T18:46:42.037Z,11.71
2023-04-12T18:49:11.949Z,11.74
2023-04-12T18:51:38.794Z,11.77
2023-04-12T18:54:08.497Z,11.79
2023-04-12T18:56:35.578Z,11.83
2023-04-12T18:59:03.936Z,11.88
2023-04-12T19:01:30.875Z,11.93
2023-04-12T19:04:00.023Z,11.97
2023-04-12T19:06:27.270Z,11.99
2023-04-12T19:08:54.137Z,12.00
2023-04-12T19:11:21.412Z,11.99
2023-04-12T19:13:50.980Z,11.93
2023-04-12T19:16:18.235Z,11.82
2023-04-12T19:18:45.290Z,11.69
2023-04-12T19:21:12.232Z,11.57
2023-04-12T19:23:39.044Z,11.49
2023-04-12T19:26:06.642Z,11.43
2023-04-12T19:28:33.450Z,11.40
2023-04-12T19:31:03.835Z,11.38
2023-04-12T19:33:30.680Z,11.38
2023-04-12T19:35:57.746Z,11.37
2023-04-12T19:38:28.195Z,11.35
2023-04-12T19:40:56.218Z,11.35
2023-04-12T19:43:23.726Z,11.34
2023-04-12T19:45:50.956Z,11.31
2023-04-12T19:48:18.604Z,11.30
2023-04-12T19:50:49.115Z,11.30
2023-04-12T19:53:21.485Z,11.31
2023-04-12T19:55:48.090Z,11.31
2023-04-12T19:58:15.559Z,11.31
2023-04-12T20:00:42.270Z,11.31
2023-04-12T20:03:09.559Z,11.30
2023-04-12T20:05:36.786Z,11.27
2023-04-12T20:08:03.866Z,11.24
2023-04-12T20:10:30.741Z,11.18
2023-04-12T20:12:57.470Z,11.09
2023-04-12T20:15:24.706Z,11.00
2023-04-12T20:17:52.256Z,10.90
2023-04-12T20:20:19.570Z,10.75
2023-04-12T20:22:47.867Z,10.57
2023-04-12T20:25:15.300Z,10.41
2023-04-12T20:27:42.521Z,10.26
2023-04-12T20:30:11.352Z,10.13
2023-04-12T20:32:38.799Z,10.01
2023-04-12T20:35:06.759Z,9.91
2023-04-12T20:37:34.106Z,9.80
2023-04-12T20:40:01.480Z,9.69
2023-04-12T20:42:28.504Z,9.58
2023-04-12T20:44:57.628Z,9.48
2023-04-12T20:47:24.928Z,9.39
2023-04-12T20:49:52.455Z,9.31
2023-04-12T20:52:19.805Z,9.26
2023-04-12T20:54:48.368Z,9.20
2023-04-12T20:57:20.117Z,9.14
2023-04-12T20:59:47.344Z,9.06
2023-04-12T21:02:16.750Z,8.98
2023-04-12T21:04:45.495Z,8.95
2023-04-12T21:07:12.974Z,8.92
2023-04-12T21:09:40.075Z,8.89
2023-04-12T21:12:08.894Z,8.87
2023-04-12T21:14:37.990Z,8.85
2023-04-12T21:17:05.903Z,8.82
2023-04-12T21:19:39.134Z,8.77
2023-04-12T21:22:07.179Z,8.70
2023-04-12T21:24:40.690Z,8.65
2023-04-12T21:27:08.557Z,8.58
2023-04-12T21:29:41.370Z,8.49
2023-04-12T21:32:09.432Z,8.41
2023-04-12T21:34:39.303Z,8.37
2023-04-12T21:37:06.168Z,8.32
2023-04-12T21:39:33.351Z,8.27
2023-04-12T21:41:59.970Z,8.21
2023-04-12T21:44:27.000Z,8.16
2023-04-12T21:46:53.922Z,8.09
2023-04-12T21:49:20.963Z,8.04
2023-04-12T21:51:49.352Z,7.99
2023-04-12T21:54:16.571Z,7.94
2023-04-12T21:56:43.407Z,7.90
2023-04-12T21:59:10.124Z,7.86
2023-04-12T22:01:37.501Z,7.80
2023-04-12T22:04:04.611Z,7.72
2023-04-12T22:06:31.638Z,7.65
2023-04-12T22:09:02.051Z,7.60
2023-04-12T22:11:30.621Z,7.57
2023-04-12T22:13:57.966Z,7.53
2023-04-12T22:16:24.867Z,7.50
2023-04-12T22:18:53.048Z,7.46
2023-04-12T22:21:19.748Z,7.43
2023-04-12T22:23:46.839Z,7.39
2023-04-12T22:26:13.908Z,7.34
2023-04-12T22:28:42.635Z,7.28
2023-04-12T22:31:16.437Z,7.21
2023-04-12T22:33:43.868Z,7.16
2023-04-12T22:36:10.734Z,7.12
2023-04-12T22:38:38.041Z,7.05
2023-04-12T22:41:05.361Z,7.01
2023-04-12T22:43:37.915Z,6.96
2023-04-12T22:46:05.873Z,6.92
2023-04-12T22:48:32.657Z,6.89
2023-04-12T22:51:03.680Z,6.88
2023-04-12T22:53:33.315Z,6.89
2023-04-12T22:55:59.983Z,6.88
2023-04-12T22:58:27.175Z,6.84
2023-04-12T23:00:54.104Z,6.79
2023-04-12T23:03:21.601Z,6.72
2023-04-12T23:05:50.357Z,6.65
2023-04-12T23:08:20.346Z,6.62
2023-04-12T23:10:47.013Z,6.61
2023-04-12T23:13:13.702Z,6.56
2023-04-12T23:15:43.937Z,6.53
2023-04-12T23:18:10.822Z,6.50
2023-04-12T23:20:38.470Z,6.47
2023-04-12T23:23:05.659Z,6.43
2023-04-12T23:25:41.332Z,6.41
2023-04-12T23:28:13.986Z,6.38
2023-04-12T23:30:51.014Z,6.31
2023-04-12T23:33:20.238Z,6.23
2023-04-12T23:35:56.040Z,6.16
2023-04-12T23:38:24.578Z,6.11
2023-04-12T23:40:54.339Z,6.09
2023-04-12T23:43:21.550Z,6.04
2023-04-12T23:45:48.492Z,5.91
2023-04-12T23:48:16.476Z,5.80
2023-04-12T23:50:45.813Z,5.68
2023-04-12T23:53:13.299Z,5.56
2023-04-12T23:55:42.681Z,5.49
2023-04-12T23:58:09.924Z,5.41
